sensor_id;sensor_type;location;lat;lon;timestamp;temperature;humidity
23671;DHT22;12012;51.998;7.614;2023-04-01T00:01:19;9.50;99.90
23671;DHT22;12012;51.998;7.614;2023-04-01T00:03:45;9.50;99.90
23671;DHT22;12012;51.998;7.614;2023-04-01T00:06:13;9.50;99.90
23671;DHT22;12012;51.998;7.614;2023-04-01T00:08:40;9.50;99.90
23671;DHT22;12012;51.998;7.614;2023-04-01T00:11:05;9.50;99.90
23671;DHT22;12012;51.998;7.614;2023-04-01T00:13:31;9.50;99.90
23671;DHT22;12012;51.998;7.614;2023-04-01T00:15:57;9.50;99.90
23671;DHT22;12012;51.998;7.614;2023-04-01T00:18:24;9.50;99.90
23671;DHT22;12012;51.998;7.614;2023-04-01T00:20:51;9.50;99.90
23671;DHT22;12012;51.998;7.614;2023-04-01T00:23:17;9.40;99.90
23671;DHT22;12012;51.998;7.614;2023-04-01T00:25:44;9.40;99.90
23671;DHT22;12012;51.998;7.614;2023-04-01T00:28:12;9.40;99.90
23671;DHT22;12012;51.998;7.614;2023-04-01T00:30:37;9.40;99.90
23671;DHT22;12012;51.998;7.614;2023-04-01T00:33:03;9.50;99.90
23671;DHT22;12012;51.998;7.614;2023-04-01T00:35:29;9.50;99.90
23671;DHT22;12012;51.998;7.614;2023-04-01T00:37:55;9.40;99.90
23671;DHT22;12012;51.998;7.614;2023-04-01T00:40:37;9.40;99.90
23671;DHT22;12012;51.998;7.614;2023-04-01T00:43:08;9.40;99.90
23671;DHT22;12012;51.998;7.614;2023-04-01T00:45:36;9.40;99.90
23671;DHT22;12012;51.998;7.614;2023-04-01T00:48:09;9.40;99.90
23671;DHT22;12012;51.998;7.614;2023-04-01T00:50:37;9.40;99.90
23671;DHT22;12012;51.998;7.614;2023-04-01T00:53:05;9.40;99.90
23671;DHT22;12012;51.998;7.614;2023-04-01T00:55:35;9.40;99.90
23671;DHT22;12012;51.998;7.614;2023-04-01T00:58:04;9.40;99.90
23671;DHT22;12012;51.998;7.614;2023-04-01T01:00:30;9.40;99.90
23671;DHT22;12012;51.998;7.614;2023-04-01T01:02:56;9.30;99.90
23671;DHT22;12012;51.998;7.614;2023-04-01T01:05:29;9.30;99.90
23671;DHT22;12012;51.998;7.614;2023-04-01T01:08:08;9.30;99.90
23671;DHT22;12012;51.998;7.614;2023-04-01T01:10:38;9.30;99.90
23671;DHT22;12012;51.998;7.614;2023-04-01T01:13:25;9.30;99.90
23671;DHT22;12012;51.998;7.614;2023-04-01T01:16:09;9.30;99.90
23671;DHT22;12012;51.998;7.614;2023-04-01T01:18:58;9.30;99.90
23671;DHT22;12012;51.998;7.614;2023-04-01T01:21:53;9.30;99.90
23671;DHT22;12012;51.998;7.614;2023-04-01T01:25:23;9.30;99.90
23671;DHT22;12012;51.998;7.614;2023-04-01T01:27:29;9.30;99.90
23671;DHT22;12012;51.998;7.614;2023-04-01T01:30:08;9.30;99.90
23671;DHT22;12012;51.998;7.614;2023-04-01T01:35:30;9.30;99.90
23671;DHT22;12012;51.998;7.614;2023-04-01T01:38:08;9.30;99.90
23671;DHT22;12012;51.998;7.614;2023-04-01T01:40:36;9.30;99.90
23671;DHT22;12012;51.998;7.614;2023-04-01T01:43:09;9.30;99.90
23671;DHT22;12012;51.998;7.614;2023-04-01T01:45:38;9.30;99.90
23671;DHT22;12012;51.998;7.614;2023-04-01T01:48:06;9.30;99.90
23671;DHT22;12012;51.998;7.614;2023-04-01T01:50:34;9.30;99.90
23671;DHT22;12012;51.998;7.614;2023-04-01T01:53:06;9.30;99.90
23671;DHT22;12012;51.998;7.614;2023-04-01T01:55:33;9.40;99.90
23671;DHT22;12012;51.998;7.614;2023-04-01T01:58:05;9.30;99.90
23671;DHT22;12012;51.998;7.614;2023-04-01T02:00:33;9.30;99.90
23671;DHT22;12012;51.998;7.614;2023-04-01T02:03:00;9.30;99.90
23671;DHT22;12012;51.998;7.614;2023-04-01T02:05:27;9.30;99.90
23671;DHT22;12012;51.998;7.614;2023-04-01T02:08:16;9.30;99.90
23671;DHT22;12012;51.998;7.614;2023-04-01T02:10:55;9.30;99.90
23671;DHT22;12012;51.998;7.614;2023-04-01T02:13:38;9.30;99.90
23671;DHT22;12012;51.998;7.614;2023-04-01T02:16:20;9.30;99.90
23671;DHT22;12012;51.998;7.614;2023-04-01T02:18:50;9.30;99.90
23671;DHT22;12012;51.998;7.614;2023-04-01T02:21:18;9.30;99.90
23671;DHT22;12012;51.998;7.614;2023-04-01T02:23:46;9.30;99.90
23671;DHT22;12012;51.998;7.614;2023-04-01T02:26:13;9.30;99.90
23671;DHT22;12012;51.998;7.614;2023-04-01T02:28:40;9.30;99.90
23671;DHT22;12012;51.998;7.614;2023-04-01T02:31:09;9.30;99.90
23671;DHT22;12012;51.998;7.614;2023-04-01T02:33:37;9.30;99.90
23671;DHT22;12012;51.998;7.614;2023-04-01T02:36:04;9.30;99.90
23671;DHT22;12012;51.998;7.614;2023-04-01T02:38:30;9.30;99.90
23671;DHT22;12012;51.998;7.614;2023-04-01T02:40:58;9.30;99.90
23671;DHT22;12012;51.998;7.614;2023-04-01T02:43:24;9.30;99.90
23671;DHT22;12012;51.998;7.614;2023-04-01T02:45:50;9.30;99.90
23671;DHT22;12012;51.998;7.614;2023-04-01T02:48:15;9.20;99.90
23671;DHT22;12012;51.998;7.614;2023-04-01T02:50:41;9.30;99.90
23671;DHT22;12012;51.998;7.614;2023-04-01T02:53:06;9.20;99.90
23671;DHT22;12012;51.998;7.614;2023-04-01T02:55:33;9.20;99.90
23671;DHT22;12012;51.998;7.614;2023-04-01T02:57:59;9.20;99.90
23671;DHT22;12012;51.998;7.614;2023-04-01T03:00:26;9.20;99.90
23671;DHT22;12012;51.998;7.614;2023-04-01T03:02:52;9.20;99.90
23671;DHT22;12012;51.998;7.614;2023-04-01T03:05:17;9.20;99.90
23671;DHT22;12012;51.998;7.614;2023-04-01T03:07:43;9.20;99.90
23671;DHT22;12012;51.998;7.614;2023-04-01T03:10:09;9.20;99.90
23671;DHT22;12012;51.998;7.614;2023-04-01T03:12:35;9.20;99.90
23671;DHT22;12012;51.998;7.614;2023-04-01T03:15:01;9.20;99.90
23671;DHT22;12012;51.998;7.614;2023-04-01T03:17:26;9.20;99.90
23671;DHT22;12012;51.998;7.614;2023-04-01T03:19:52;9.20;99.90
23671;DHT22;12012;51.998;7.614;2023-04-01T03:22:18;9.20;99.90
23671;DHT22;12012;51.998;7.614;2023-04-01T03:24:46;9.10;99.90
23671;DHT22;12012;51.998;7.614;2023-04-01T03:27:12;9.10;99.90
23671;DHT22;12012;51.998;7.614;2023-04-01T03:29:38;9.20;99.90
23671;DHT22;12012;51.998;7.614;2023-04-01T03:32:04;9.20;99.90
23671;DHT22;12012;51.998;7.614;2023-04-01T03:34:30;9.10;99.90
23671;DHT22;12012;51.998;7.614;2023-04-01T03:36:55;9.10;99.90
23671;DHT22;12012;51.998;7.614;2023-04-01T03:39:21;9.10;99.90
23671;DHT22;12012;51.998;7.614;2023-04-01T03:41:47;9.10;99.90
23671;DHT22;12012;51.998;7.614;2023-04-01T03:44:12;9.10;99.90
23671;DHT22;12012;51.998;7.614;2023-04-01T03:46:38;9.10;99.90
23671;DHT22;12012;51.998;7.614;2023-04-01T03:49:07;9.10;99.90
23671;DHT22;12012;51.998;7.614;2023-04-01T03:51:45;9.10;99.90
23671;DHT22;12012;51.998;7.614;2023-04-01T03:54:11;9.10;99.90
23671;DHT22;12012;51.998;7.614;2023-04-01T03:56:37;9.10;99.90
23671;DHT22;12012;51.998;7.614;2023-04-01T03:59:04;9.10;99.90
23671;DHT22;12012;51.998;7.614;2023-04-01T04:01:30;9.10;99.90
23671;DHT22;12012;51.998;7.614;2023-04-01T04:03:56;9.10;99.90
23671;DHT22;12012;51.998;7.614;2023-04-01T04:06:23;9.10;99.90
23671;DHT22;12012;51.998;7.614;2023-04-01T04:08:49;9.10;99.90
23671;DHT22;12012;51.998;7.614;2023-04-01T04:11:15;9.10;99.90
23671;DHT22;12012;51.998;7.614;2023-04-01T04:13:41;9.10;99.90
23671;DHT22;12012;51.998;7.614;2023-04-01T04:16:07;9.10;99.90
23671;DHT22;12012;51.998;7.614;2023-04-01T04:18:34;9.10;99.90
23671;DHT22;12012;51.998;7.614;2023-04-01T04:20:59;9.10;99.90
23671;DHT22;12012;51.998;7.614;2023-04-01T04:23:25;9.10;99.90
23671;DHT22;12012;51.998;7.614;2023-04-01T04:26:02;9.10;99.90
23671;DHT22;12012;51.998;7.614;2023-04-01T04:28:28;9.10;99.90
23671;DHT22;12012;51.998;7.614;2023-04-01T04:30:54;9.10;99.90
23671;DHT22;12012;51.998;7.614;2023-04-01T04:33:22;9.10;99.90
23671;DHT22;12012;51.998;7.614;2023-04-01T04:35:48;9.10;99.90
23671;DHT22;12012;51.998;7.614;2023-04-01T04:38:14;9.10;99.90
23671;DHT22;12012;51.998;7.614;2023-04-01T04:40:41;9.10;99.90
23671;DHT22;12012;51.998;7.614;2023-04-01T04:43:06;9.10;99.90
23671;DHT22;12012;51.998;7.614;2023-04-01T04:45:32;9.10;99.90
23671;DHT22;12012;51.998;7.614;2023-04-01T04:47:58;9.20;99.90
23671;DHT22;12012;51.998;7.614;2023-04-01T04:50:24;9.20;99.90
23671;DHT22;12012;51.998;7.614;2023-04-01T04:52:50;9.10;99.90
23671;DHT22;12012;51.998;7.614;2023-04-01T04:55:16;9.10;99.90
23671;DHT22;12012;51.998;7.614;2023-04-01T04:57:41;9.10;99.90
23671;DHT22;12012;51.998;7.614;2023-04-01T05:00:08;9.10;99.90
23671;DHT22;12012;51.998;7.614;2023-04-01T05:02:35;9.10;99.90
23671;DHT22;12012;51.998;7.614;2023-04-01T05:05:01;9.10;99.90
23671;DHT22;12012;51.998;7.614;2023-04-01T05:07:26;9.20;99.90
23671;DHT22;12012;51.998;7.614;2023-04-01T05:09:52;9.10;99.90
23671;DHT22;12012;51.998;7.614;2023-04-01T05:12:17;9.20;99.90
23671;DHT22;12012;51.998;7.614;2023-04-01T05:14:43;9.10;99.90
23671;DHT22;12012;51.998;7.614;2023-04-01T05:17:10;9.20;99.90
23671;DHT22;12012;51.998;7.614;2023-04-01T05:19:36;9.20;99.90
23671;DHT22;12012;51.998;7.614;2023-04-01T05:22:01;9.20;99.90
23671;DHT22;12012;51.998;7.614;2023-04-01T05:24:27;9.20;99.90
23671;DHT22;12012;51.998;7.614;2023-04-01T05:26:52;9.20;99.90
23671;DHT22;12012;51.998;7.614;2023-04-01T05:29:18;9.10;99.90
23671;DHT22;12012;51.998;7.614;2023-04-01T05:31:43;9.10;99.90
23671;DHT22;12012;51.998;7.614;2023-04-01T05:34:09;9.20;99.90
23671;DHT22;12012;51.998;7.614;2023-04-01T05:36:36;9.20;99.90
23671;DHT22;12012;51.998;7.614;2023-04-01T05:39:01;9.10;99.90
23671;DHT22;12012;51.998;7.614;2023-04-01T05:41:27;9.10;99.90
23671;DHT22;12012;51.998;7.614;2023-04-01T05:43:53;9.10;99.90
23671;DHT22;12012;51.998;7.614;2023-04-01T05:46:18;9.20;99.90
23671;DHT22;12012;51.998;7.614;2023-04-01T05:48:44;9.20;99.90
23671;DHT22;12012;51.998;7.614;2023-04-01T05:51:14;9.10;99.90
23671;DHT22;12012;51.998;7.614;2023-04-01T05:53:40;9.20;99.90
23671;DHT22;12012;51.998;7.614;2023-04-01T05:56:06;9.20;99.90
23671;DHT22;12012;51.998;7.614;2023-04-01T05:58:35;9.20;99.90
23671;DHT22;12012;51.998;7.614;2023-04-01T06:01:05;9.20;99.90
23671;DHT22;12012;51.998;7.614;2023-04-01T06:03:32;9.20;99.90
23671;DHT22;12012;51.998;7.614;2023-04-01T06:05:57;9.20;99.90
23671;DHT22;12012;51.998;7.614;2023-04-01T06:08:24;9.20;99.90
23671;DHT22;12012;51.998;7.614;2023-04-01T06:11:04;9.20;99.90
23671;DHT22;12012;51.998;7.614;2023-04-01T06:14:00;9.30;99.90
23671;DHT22;12012;51.998;7.614;2023-04-01T06:22:22;9.30;99.90
23671;DHT22;12012;51.998;7.614;2023-04-01T06:25:16;9.40;99.90
23671;DHT22;12012;51.998;7.614;2023-04-01T06:27:58;9.40;99.90
23671;DHT22;12012;51.998;7.614;2023-04-01T06:30:43;9.50;99.90
23671;DHT22;12012;51.998;7.614;2023-04-01T06:44:16;9.70;99.90
23671;DHT22;12012;51.998;7.614;2023-04-01T06:54:38;10.00;99.90
23671;DHT22;12012;51.998;7.614;2023-04-01T06:57:38;10.10;99.90
23671;DHT22;12012;51.998;7.614;2023-04-01T07:00:14;10.20;99.90
23671;DHT22;12012;51.998;7.614;2023-04-01T07:03:05;10.20;99.90
23671;DHT22;12012;51.998;7.614;2023-04-01T07:05:33;10.20;99.90
23671;DHT22;12012;51.998;7.614;2023-04-01T07:08:03;10.30;99.90
23671;DHT22;12012;51.998;7.614;2023-04-01T07:19:10;10.50;99.90
23671;DHT22;12012;51.998;7.614;2023-04-01T07:21:46;10.50;99.90
23671;DHT22;12012;51.998;7.614;2023-04-01T07:24:20;10.50;99.90
23671;DHT22;12012;51.998;7.614;2023-04-01T07:26:48;10.50;99.90
23671;DHT22;12012;51.998;7.614;2023-04-01T07:29:17;10.50;99.90
23671;DHT22;12012;51.998;7.614;2023-04-01T07:34:25;10.50;99.90
23671;DHT22;12012;51.998;7.614;2023-04-01T07:37:03;10.50;99.90
23671;DHT22;12012;51.998;7.614;2023-04-01T07:45:11;10.50;99.90
23671;DHT22;12012;51.998;7.614;2023-04-01T07:48:19;10.50;99.90
23671;DHT22;12012;51.998;7.614;2023-04-01T07:51:02;10.40;99.90
23671;DHT22;12012;51.998;7.614;2023-04-01T07:53:41;10.40;99.90
23671;DHT22;12012;51.998;7.614;2023-04-01T07:56:26;10.40;99.90
23671;DHT22;12012;51.998;7.614;2023-04-01T08:01:53;10.40;99.90
23671;DHT22;12012;51.998;7.614;2023-04-01T08:07:02;10.40;99.90
23671;DHT22;12012;51.998;7.614;2023-04-01T08:10:27;10.40;99.90
23671;DHT22;12012;51.998;7.614;2023-04-01T08:15:25;10.50;99.90
23671;DHT22;12012;51.998;7.614;2023-04-01T08:20:50;10.50;99.90
23671;DHT22;12012;51.998;7.614;2023-04-01T08:23:28;10.60;99.90
23671;DHT22;12012;51.998;7.614;2023-04-01T08:26:06;10.70;99.90
23671;DHT22;12012;51.998;7.614;2023-04-01T08:28:46;10.80;99.90
23671;DHT22;12012;51.998;7.614;2023-04-01T08:33:58;10.90;99.90
23671;DHT22;12012;51.998;7.614;2023-04-01T08:39:10;10.90;99.90
23671;DHT22;12012;51.998;7.614;2023-04-01T08:44:49;10.90;99.90
23671;DHT22;12012;51.998;7.614;2023-04-01T08:47:38;10.90;99.90
23671;DHT22;12012;51.998;7.614;2023-04-01T08:53:06;11.10;99.90
23671;DHT22;12012;51.998;7.614;2023-04-01T08:55:38;11.10;99.90
23671;DHT22;12012;51.998;7.614;2023-04-01T09:17:19;11.20;99.90
23671;DHT22;12012;51.998;7.614;2023-04-01T09:25:26;11.30;99.90
23671;DHT22;12012;51.998;7.614;2023-04-01T09:36:16;11.30;99.90
23671;DHT22;12012;51.998;7.614;2023-04-01T09:42:15;11.30;99.90
23671;DHT22;12012;51.998;7.614;2023-04-01T09:45:03;11.30;99.90
23671;DHT22;12012;51.998;7.614;2023-04-01T09:58:33;11.70;99.90
23671;DHT22;12012;51.998;7.614;2023-04-01T10:24:25;11.80;99.90
23671;DHT22;12012;51.998;7.614;2023-04-01T10:27:02;11.70;99.90
23671;DHT22;12012;51.998;7.614;2023-04-01T10:43:26;11.80;99.90
23671;DHT22;12012;51.998;7.614;2023-04-01T10:49:10;11.90;99.90
23671;DHT22;12012;51.998;7.614;2023-04-01T10:54:48;12.30;99.90
23671;DHT22;12012;51.998;7.614;2023-04-01T11:00:46;12.50;99.90
23671;DHT22;12012;51.998;7.614;2023-04-01T11:03:20;12.70;99.90
23671;DHT22;12012;51.998;7.614;2023-04-01T11:11:47;12.90;99.90
23671;DHT22;12012;51.998;7.614;2023-04-01T11:26:02;13.70;99.90
23671;DHT22;12012;51.998;7.614;2023-04-01T11:43:27;13.50;99.90
23671;DHT22;12012;51.998;7.614;2023-04-01T11:46:11;13.50;99.90
23671;DHT22;12012;51.998;7.614;2023-04-01T12:00:23;13.70;99.90
23671;DHT22;12012;51.998;7.614;2023-04-01T12:09:00;13.60;99.90
23671;DHT22;12012;51.998;7.614;2023-04-01T12:14:16;13.40;99.90
23671;DHT22;12012;51.998;7.614;2023-04-01T12:17:00;13.30;99.90
23671;DHT22;12012;51.998;7.614;2023-04-01T12:24:46;13.10;99.90
23671;DHT22;12012;51.998;7.614;2023-04-01T12:32:42;12.90;99.90
23671;DHT22;12012;51.998;7.614;2023-04-01T12:44:00;12.70;99.90
23671;DHT22;12012;51.998;7.614;2023-04-01T12:49:59;12.60;99.90
23671;DHT22;12012;51.998;7.614;2023-04-01T12:55:28;12.50;99.90
23671;DHT22;12012;51.998;7.614;2023-04-01T12:58:03;12.50;99.90
23671;DHT22;12012;51.998;7.614;2023-04-01T13:01:19;12.50;99.90
23671;DHT22;12012;51.998;7.614;2023-04-01T13:04:25;12.50;99.90
23671;DHT22;12012;51.998;7.614;2023-04-01T13:12:29;12.40;99.90
23671;DHT22;12012;51.998;7.614;2023-04-01T13:26:38;12.50;99.90
23671;DHT22;12012;51.998;7.614;2023-04-01T13:29:20;12.60;99.90
23671;DHT22;12012;51.998;7.614;2023-04-01T13:35:08;12.60;99.90
23671;DHT22;12012;51.998;7.614;2023-04-01T13:40:23;12.70;99.90
23671;DHT22;12012;51.998;7.614;2023-04-01T13:42:59;12.70;99.90
23671;DHT22;12012;51.998;7.614;2023-04-01T13:45:42;12.80;99.90
23671;DHT22;12012;51.998;7.614;2023-04-01T13:51:17;12.80;99.90
23671;DHT22;12012;51.998;7.614;2023-04-01T13:56:29;13.10;99.90
23671;DHT22;12012;51.998;7.614;2023-04-01T14:01:43;13.60;99.90
23671;DHT22;12012;51.998;7.614;2023-04-01T14:04:20;13.80;99.90
23671;DHT22;12012;51.998;7.614;2023-04-01T14:17:59;14.10;99.90
23671;DHT22;12012;51.998;7.614;2023-04-01T14:20:59;14.00;99.90
23671;DHT22;12012;51.998;7.614;2023-04-01T14:29:17;14.10;99.90
23671;DHT22;12012;51.998;7.614;2023-04-01T14:34:50;14.30;99.10
23671;DHT22;12012;51.998;7.614;2023-04-01T14:40:16;14.40;97.00
23671;DHT22;12012;51.998;7.614;2023-04-01T14:42:59;14.30;98.20
23671;DHT22;12012;51.998;7.614;2023-04-01T14:45:45;14.20;99.20
23671;DHT22;12012;51.998;7.614;2023-04-01T14:51:02;14.00;99.90
23671;DHT22;12012;51.998;7.614;2023-04-01T14:53:31;13.90;99.90
23671;DHT22;12012;51.998;7.614;2023-04-01T14:56:01;13.70;99.90
23671;DHT22;12012;51.998;7.614;2023-04-01T14:59:00;13.60;99.90
23671;DHT22;12012;51.998;7.614;2023-04-01T15:01:36;13.40;99.90
23671;DHT22;12012;51.998;7.614;2023-04-01T15:09:51;12.90;99.90
23671;DHT22;12012;51.998;7.614;2023-04-01T15:12:29;12.80;99.90
23671;DHT22;12012;51.998;7.614;2023-04-01T15:18:05;12.60;99.90
23671;DHT22;12012;51.998;7.614;2023-04-01T15:23:20;12.50;99.90
23671;DHT22;12012;51.998;7.614;2023-04-01T15:31:31;12.40;99.90
23671;DHT22;12012;51.998;7.614;2023-04-01T15:34:15;12.30;99.90
23671;DHT22;12012;51.998;7.614;2023-04-01T15:37:00;12.30;99.90
23671;DHT22;12012;51.998;7.614;2023-04-01T15:45:10;12.10;99.90
23671;DHT22;12012;51.998;7.614;2023-04-01T15:48:10;12.00;99.90
23671;DHT22;12012;51.998;7.614;2023-04-01T15:50:51;11.90;99.90
23671;DHT22;12012;51.998;7.614;2023-04-01T16:07:42;11.50;99.90
23671;DHT22;12012;51.998;7.614;2023-04-01T16:10:34;11.40;99.90
23671;DHT22;12012;51.998;7.614;2023-04-01T16:18:59;11.40;99.90
23671;DHT22;12012;51.998;7.614;2023-04-01T16:21:36;11.40;99.90
23671;DHT22;12012;51.998;7.614;2023-04-01T16:24:15;11.30;99.90
23671;DHT22;12012;51.998;7.614;2023-04-01T16:29:35;11.30;99.90
23671;DHT22;12012;51.998;7.614;2023-04-01T16:37:31;11.30;99.90
23671;DHT22;12012;51.998;7.614;2023-04-01T16:43:24;11.20;99.90
23671;DHT22;12012;51.998;7.614;2023-04-01T16:56:47;11.00;99.90
23671;DHT22;12012;51.998;7.614;2023-04-01T17:01:53;11.00;99.90
23671;DHT22;12012;51.998;7.614;2023-04-01T17:06:49;10.90;99.90
23671;DHT22;12012;51.998;7.614;2023-04-01T17:12:32;10.80;99.90
23671;DHT22;12012;51.998;7.614;2023-04-01T17:20:46;10.50;99.90
23671;DHT22;12012;51.998;7.614;2023-04-01T17:23:37;10.50;99.90
23671;DHT22;12012;51.998;7.614;2023-04-01T17:26:42;10.40;99.90
23671;DHT22;12012;51.998;7.614;2023-04-01T17:29:23;10.30;99.90
23671;DHT22;12012;51.998;7.614;2023-04-01T17:32:16;10.30;99.90
23671;DHT22;12012;51.998;7.614;2023-04-01T17:35:15;10.30;99.90
23671;DHT22;12012;51.998;7.614;2023-04-01T17:38:21;10.40;99.90
23671;DHT22;12012;51.998;7.614;2023-04-01T17:41:08;10.40;99.90
23671;DHT22;12012;51.998;7.614;2023-04-01T17:43:43;10.50;99.90
23671;DHT22;12012;51.998;7.614;2023-04-01T17:46:44;10.60;99.90
23671;DHT22;12012;51.998;7.614;2023-04-01T17:49:23;10.60;99.90
23671;DHT22;12012;51.998;7.614;2023-04-01T17:55:15;10.80;99.90
23671;DHT22;12012;51.998;7.614;2023-04-01T17:58:00;10.80;99.90
23671;DHT22;12012;51.998;7.614;2023-04-01T18:00:29;10.70;99.90
23671;DHT22;12012;51.998;7.614;2023-04-01T18:08:23;10.30;99.90
23671;DHT22;12012;51.998;7.614;2023-04-01T18:10:57;10.10;99.90
23671;DHT22;12012;51.998;7.614;2023-04-01T18:16:42;10.00;99.90
23671;DHT22;12012;51.998;7.614;2023-04-01T18:22:16;9.80;99.90
23671;DHT22;12012;51.998;7.614;2023-04-01T18:27:42;9.70;99.90
23671;DHT22;12012;51.998;7.614;2023-04-01T18:30:12;9.60;99.90
23671;DHT22;12012;51.998;7.614;2023-04-01T18:32:55;9.60;99.90
23671;DHT22;12012;51.998;7.614;2023-04-01T18:35:48;9.60;99.90
23671;DHT22;12012;51.998;7.614;2023-04-01T18:38:23;9.50;99.90
23671;DHT22;12012;51.998;7.614;2023-04-01T18:41:15;9.50;99.90
23671;DHT22;12012;51.998;7.614;2023-04-01T18:44:05;9.50;99.90
23671;DHT22;12012;51.998;7.614;2023-04-01T18:49:21;9.40;99.90
23671;DHT22;12012;51.998;7.614;2023-04-01T18:51:51;9.40;99.90
23671;DHT22;12012;51.998;7.614;2023-04-01T18:54:31;9.30;99.90
23671;DHT22;12012;51.998;7.614;2023-04-01T18:57:18;9.30;99.90
23671;DHT22;12012;51.998;7.614;2023-04-01T18:59:52;9.30;99.90
23671;DHT22;12012;51.998;7.614;2023-04-01T19:02:40;9.20;99.90
23671;DHT22;12012;51.998;7.614;2023-04-01T19:15:27;9.00;99.90
23671;DHT22;12012;51.998;7.614;2023-04-01T19:25:53;8.80;99.90
23671;DHT22;12012;51.998;7.614;2023-04-01T19:28:36;8.80;99.90
23671;DHT22;12012;51.998;7.614;2023-04-01T19:33:52;8.80;99.90
23671;DHT22;12012;51.998;7.614;2023-04-01T19:36:49;8.80;99.90
23671;DHT22;12012;51.998;7.614;2023-04-01T19:39:44;8.80;99.90
23671;DHT22;12012;51.998;7.614;2023-04-01T19:48:04;8.70;99.90
23671;DHT22;12012;51.998;7.614;2023-04-01T19:50:37;8.60;99.90
23671;DHT22;12012;51.998;7.614;2023-04-01T20:04:08;8.40;99.90
23671;DHT22;12012;51.998;7.614;2023-04-01T20:12:06;8.30;99.90
23671;DHT22;12012;51.998;7.614;2023-04-01T20:14:47;8.30;99.90
23671;DHT22;12012;51.998;7.614;2023-04-01T20:19:53;8.20;99.90
23671;DHT22;12012;51.998;7.614;2023-04-01T20:22:23;8.10;99.90
23671;DHT22;12012;51.998;7.614;2023-04-01T20:24:58;8.10;99.90
23671;DHT22;12012;51.998;7.614;2023-04-01T20:27:29;8.10;99.90
23671;DHT22;12012;51.998;7.614;2023-04-01T20:35:22;8.10;99.90
23671;DHT22;12012;51.998;7.614;2023-04-01T20:38:35;8.00;99.90
23671;DHT22;12012;51.998;7.614;2023-04-01T20:43:56;8.00;99.90
23671;DHT22;12012;51.998;7.614;2023-04-01T20:52:24;7.90;99.90
23671;DHT22;12012;51.998;7.614;2023-04-01T20:54:40;7.90;99.90
23671;DHT22;12012;51.998;7.614;2023-04-01T21:03:15;7.80;99.90
23671;DHT22;12012;51.998;7.614;2023-04-01T21:05:48;7.80;99.90
23671;DHT22;12012;51.998;7.614;2023-04-01T21:08:36;7.80;99.90
23671;DHT22;12012;51.998;7.614;2023-04-01T21:11:25;7.70;99.90
23671;DHT22;12012;51.998;7.614;2023-04-01T21:17:22;7.70;99.90
23671;DHT22;12012;51.998;7.614;2023-04-01T21:20:24;7.70;99.90
23671;DHT22;12012;51.998;7.614;2023-04-01T21:28:40;7.60;99.90
23671;DHT22;12012;51.998;7.614;2023-04-01T21:31:22;7.60;99.90
23671;DHT22;12012;51.998;7.614;2023-04-01T21:42:26;7.40;99.90
23671;DHT22;12012;51.998;7.614;2023-04-01T21:45:07;7.40;99.90
23671;DHT22;12012;51.998;7.614;2023-04-01T21:50:37;7.40;99.90
23671;DHT22;12012;51.998;7.614;2023-04-01T21:53:43;7.40;99.90
23671;DHT22;12012;51.998;7.614;2023-04-01T22:05:10;7.30;99.90
23671;DHT22;12012;51.998;7.614;2023-04-01T22:10:43;7.20;99.90
23671;DHT22;12012;51.998;7.614;2023-04-01T22:13:18;7.20;99.90
23671;DHT22;12012;51.998;7.614;2023-04-01T22:15:53;7.20;99.90
23671;DHT22;12012;51.998;7.614;2023-04-01T22:18:36;7.30;99.90
23671;DHT22;12012;51.998;7.614;2023-04-01T22:21:12;7.30;99.90
23671;DHT22;12012;51.998;7.614;2023-04-01T22:26:41;7.20;99.90
23671;DHT22;12012;51.998;7.614;2023-04-01T22:32:16;7.10;99.90
23671;DHT22;12012;51.998;7.614;2023-04-01T22:34:57;7.10;99.90
23671;DHT22;12012;51.998;7.614;2023-04-01T22:37:38;7.10;99.90
23671;DHT22;12012;51.998;7.614;2023-04-01T22:43:04;7.00;99.90
23671;DHT22;12012;51.998;7.614;2023-04-01T22:54:23;7.00;99.90
23671;DHT22;12012;51.998;7.614;2023-04-01T22:57:02;7.00;99.90
23671;DHT22;12012;51.998;7.614;2023-04-01T23:02:15;6.90;99.90
23671;DHT22;12012;51.998;7.614;2023-04-01T23:04:43;6.80;99.90
23671;DHT22;12012;51.998;7.614;2023-04-01T23:09:58;6.70;99.90
23671;DHT22;12012;51.998;7.614;2023-04-01T23:12:25;6.70;99.90
23671;DHT22;12012;51.998;7.614;2023-04-01T23:15:00;6.70;99.90
23671;DHT22;12012;51.998;7.614;2023-04-01T23:17:37;6.60;99.90
23671;DHT22;12012;51.998;7.614;2023-04-01T23:20:11;6.60;99.90
23671;DHT22;12012;51.998;7.614;2023-04-01T23:23:14;6.60;99.90
23671;DHT22;12012;51.998;7.614;2023-04-01T23:26:01;6.50;99.90
23671;DHT22;12012;51.998;7.614;2023-04-01T23:30:57;6.50;99.90
23671;DHT22;12012;51.998;7.614;2023-04-01T23:33:28;6.50;99.90
23671;DHT22;12012;51.998;7.614;2023-04-01T23:38:32;6.40;99.90
23671;DHT22;12012;51.998;7.614;2023-04-01T23:40:58;6.40;99.90
23671;DHT22;12012;51.998;7.614;2023-04-01T23:43:33;6.50;99.90
23671;DHT22;12012;51.998;7.614;2023-04-01T23:46:03;6.50;99.90
23671;DHT22;12012;51.998;7.614;2023-04-01T23:48:45;6.40;99.90
23671;DHT22;12012;51.998;7.614;2023-04-01T23:51:18;6.40;99.90
23671;DHT22;12012;51.998;7.614;2023-04-01T23:53:46;6.40;99.90
23671;DHT22;12012;51.998;7.614;2023-04-01T23:56:15;6.30;99.90
23671;DHT22;12012;51.998;7.614;2023-04-01T23:58:47;6.30;99.90
